• Join FlightAware (Why Join?)
  • Login
  • US Flag 
10:45AM EDT


 

Airport Tracker/Info


-or-


 

Live Flight TrackerFlight Track Log ✈ KAL61 ✈ 06-May-2013 ✈ KLAX - SBGR / GRU

Flight Track Log - Related Links

Times and Time Zones

All times are in EDT time to prevent confusion due to time zone crossing. See the KAL61 flight status page for this flight to view local times or setup timezone preferences in your user account.

Time Position Orientation Groundspeed Altitude Reporting Facility
EDT Latitude Longitude Course Direction KTS MPH feet Rate Location/Type
10:12PM 33.9333 -118.4333 268° West 205 236 1,000  Level Southern California TRACON
10:13PM 33.9325 -118.4653 268° West 219 252 2,200 1,680 Climbing Los Angeles Center
10:14PM 33.8975 -118.5267 236° Southwest 210 242 3,900 1,800 Climbing Los Angeles Center
10:16PM 33.7769 -118.5789 200° South 276 318 8,200 2,100 Climbing Los Angeles Center
10:18PM 33.6747 -118.4092 126° Southeast 337 388 12,600 2,100 Climbing Los Angeles Center
10:19PM 33.6578 -118.2922 100° East 368 423 14,700 1,620 Climbing Los Angeles Center
10:20PM 33.6308 -118.1636 104° East 406 467 16,000 1,800 Climbing Los Angeles Center
10:21PM 33.5828 -118.0019 110° East 432 497 18,500 2,160 Climbing Los Angeles Center
10:22PM 33.5389 -117.8597 110° East 456 525 20,400 1,800 Climbing Los Angeles Center
10:23PM 33.4933 -117.7133 110° East 469 540 22,300 1,740 Climbing Los Angeles Center
10:25PM 33.4342 -117.5350 112° Southeast 482 555 24,400 1,500 Climbing Los Angeles Center
10:26PM 33.3758 -117.3858 115° Southeast 494 568 25,800 1,380 Climbing Los Angeles Center
10:27PM 33.3078 -117.2386 119° Southeast 505 581 27,300 1,440 Climbing Los Angeles Center
10:28PM 33.2306 -117.0775 120° Southeast 514 592 28,800 1,200 Climbing Los Angeles Center
10:29PM 33.1739 -116.9553 119° Southeast 522 601 29,800 1,200 Climbing Los Angeles Center
10:31PM 33.0136 -116.6117 119° Southeast 537 618 32,600 1,020 Climbing Los Angeles Center
10:32PM 32.9325 -116.4422 120° Southeast 537 618 33,000 120 Climbing Los Angeles Center
10:33PM 32.8600 -116.2875 119° Southeast 537 618 33,000  Level Los Angeles Center
10:34PM 32.7728 -116.1058 120° Southeast 534 615 33,000 -60 Level Los Angeles Center
10:35PM 32.6992 -115.9536 120° Southeast 533 613 32,900  Descending Los Angeles Center
10:36PM 32.6092 -115.7669 120° Southeast 542 624 33,000 60 Climbing Los Angeles Center
10:38PM 32.5745 -115.5211 125° Southeast  Level FlightAware Approximate
10:45PM 32.0381 -114.6134 125° Southeast  Level FlightAware Approximate
10:46PM 31.9612 -114.4843 125° Southeast  Level FlightAware Approximate
10:47PM 31.8843 -114.3555 125° Southeast  Level FlightAware Approximate
10:48PM 31.8072 -114.2269 125° Southeast  Level FlightAware Approximate
10:49PM 31.7299 -114.0984 125° Southeast  Level FlightAware Approximate
10:50PM 31.6526 -113.9702 125° Southeast  Level FlightAware Approximate
10:51PM 31.5751 -113.8422 125° Southeast  Level FlightAware Approximate
10:52PM 31.4975 -113.7145 125° Southeast  Level FlightAware Approximate
10:53PM 31.4198 -113.5869 126° Southeast  Level FlightAware Approximate
10:54PM 31.3451 -113.4571 120° Southeast  Level FlightAware Approximate
10:55PM 31.2773 -113.3222 120° Southeast  Level FlightAware Approximate
10:56PM 31.2093 -113.1875 121° Southeast  Level FlightAware Approximate
10:57PM 31.1412 -113.0530 121° Southeast  Level FlightAware Approximate
10:58PM 31.0729 -112.9187 121° Southeast  Level FlightAware Approximate
10:59PM 31.0045 -112.7846 121° Southeast  Level FlightAware Approximate
11:00PM 30.9360 -112.6507 121° Southeast  Level FlightAware Approximate
11:01PM 30.8673 -112.5170 121° Southeast  Level FlightAware Approximate
11:02PM 30.7958 -112.3854 123° Southeast  Level FlightAware Approximate
11:03PM 30.7233 -112.2546 123° Southeast  Level FlightAware Approximate
11:04PM 30.6506 -112.1240 123° Southeast  Level FlightAware Approximate
11:05PM 30.5785 -111.9932 122° Southeast  Level FlightAware Approximate
11:06PM 30.5076 -111.8616 122° Southeast  Level FlightAware Approximate
11:07PM 30.4359 -111.7306 123° Southeast  Level FlightAware Approximate
11:08PM 30.3639 -111.6000 123° Southeast  Level FlightAware Approximate
11:09PM 30.2917 -111.4695 123° Southeast  Level FlightAware Approximate
11:10PM 30.2193 -111.3393 123° Southeast  Level FlightAware Approximate
11:11PM 30.1469 -111.2093 123° Southeast  Level FlightAware Approximate
11:12PM 30.0743 -111.0795 123° Southeast  Level FlightAware Approximate
11:13PM 30.0016 -110.9498 123° Southeast  Level FlightAware Approximate
11:14PM 29.9287 -110.8204 123° Southeast  Level FlightAware Approximate
11:15PM 29.8558 -110.6911 123° Southeast  Level FlightAware Approximate
11:16PM 29.7827 -110.5620 123° Southeast  Level FlightAware Approximate
11:17PM 29.7094 -110.4332 123° Southeast  Level FlightAware Approximate
11:18PM 29.6361 -110.3045 123° Southeast  Level FlightAware Approximate
11:19PM 29.5626 -110.1759 123° Southeast  Level FlightAware Approximate
11:20PM 29.4890 -110.0476 123° Southeast  Level FlightAware Approximate
11:21PM 29.4153 -109.9195 123° Southeast  Level FlightAware Approximate
11:22PM 29.3415 -109.7915 123° Southeast  Level FlightAware Approximate
11:23PM 29.2675 -109.6638 124° Southeast  Level FlightAware Approximate
11:24PM 29.1935 -109.5362 124° Southeast  Level FlightAware Approximate
11:25PM 29.1193 -109.4088 124° Southeast  Level FlightAware Approximate
11:26PM 29.0449 -109.2816 124° Southeast  Level FlightAware Approximate
11:27PM 28.9705 -109.1545 124° Southeast  Level FlightAware Approximate
11:28PM 28.8959 -109.0277 124° Southeast  Level FlightAware Approximate
11:29PM 28.8213 -108.9010 124° Southeast  Level FlightAware Approximate
11:30PM 28.7465 -108.7746 124° Southeast  Level FlightAware Approximate
11:31PM 28.6716 -108.6482 124° Southeast  Level FlightAware Approximate
11:32PM 28.5965 -108.5221 124° Southeast  Level FlightAware Approximate
11:33PM 28.5224 -108.3954 124° Southeast  Level FlightAware Approximate
11:34PM 28.4483 -108.2687 124° Southeast  Level FlightAware Approximate
11:35PM 28.3742 -108.1422 124° Southeast  Level FlightAware Approximate
11:36PM 28.2999 -108.0158 124° Southeast  Level FlightAware Approximate
11:37PM 28.2255 -107.8897 124° Southeast  Level FlightAware Approximate
11:38PM 28.1510 -107.7637 124° Southeast  Level FlightAware Approximate
11:39PM 28.0764 -107.6379 124° Southeast  Level FlightAware Approximate
11:40PM 28.0017 -107.5122 124° Southeast  Level FlightAware Approximate
11:41PM 27.9268 -107.3867 124° Southeast  Level FlightAware Approximate
11:42PM 27.8519 -107.2615 124° Southeast  Level FlightAware Approximate
11:43PM 27.7768 -107.1363 124° Southeast  Level FlightAware Approximate
11:44PM 27.7016 -107.0114 124° Southeast  Level FlightAware Approximate
11:45PM 27.6263 -106.8866 124° Southeast  Level FlightAware Approximate
11:46PM 27.5509 -106.7620 124° Southeast  Level FlightAware Approximate
11:47PM 27.4754 -106.6376 124° Southeast  Level FlightAware Approximate
11:48PM 27.3997 -106.5133 124° Southeast  Level FlightAware Approximate
11:49PM 27.3240 -106.3892 124° Southeast  Level FlightAware Approximate
11:50PM 27.2481 -106.2653 125° Southeast  Level FlightAware Approximate
11:51PM 27.1722 -106.1415 125° Southeast  Level FlightAware Approximate
11:52PM 27.0961 -106.0179 125° Southeast  Level FlightAware Approximate
11:53PM 27.0199 -105.8945 125° Southeast  Level FlightAware Approximate
11:54PM 26.9436 -105.7713 125° Southeast  Level FlightAware Approximate
11:55PM 26.8673 -105.6482 125° Southeast  Level FlightAware Approximate
11:56PM 26.7908 -105.5253 125° Southeast  Level FlightAware Approximate
11:57PM 26.7142 -105.4025 125° Southeast  Level FlightAware Approximate
11:58PM 26.6374 -105.2799 125° Southeast  Level FlightAware Approximate
11:59PM 26.5606 -105.1575 125° Southeast  Level FlightAware Approximate
12:00AM 26.4837 -105.0352 125° Southeast  Level FlightAware Approximate
12:01AM 26.4067 -104.9131 125° Southeast  Level FlightAware Approximate
12:02AM 26.3296 -104.7912 125° Southeast  Level FlightAware Approximate
12:03AM 26.2523 -104.6694 125° Southeast  Level FlightAware Approximate
12:04AM 26.1750 -104.5478 125° Southeast  Level FlightAware Approximate
12:05AM 26.0976 -104.4264 125° Southeast  Level FlightAware Approximate
12:06AM 26.0200 -104.3051 125° Southeast  Level FlightAware Approximate
12:07AM 25.9424 -104.1840 125° Southeast  Level FlightAware Approximate
12:08AM 25.8647 -104.0630 126° Southeast  Level FlightAware Approximate
12:09AM 25.7868 -103.9422 126° Southeast  Level FlightAware Approximate
12:10AM 25.7089 -103.8215 126° Southeast  Level FlightAware Approximate
12:11AM 25.6308 -103.7010 126° Southeast  Level FlightAware Approximate
12:12AM 25.5527 -103.5807 126° Southeast  Level FlightAware Approximate
12:13AM 25.4745 -103.4605 126° Southeast  Level FlightAware Approximate
12:14AM 25.3961 -103.3405 126° Southeast  Level FlightAware Approximate
12:15AM 25.3177 -103.2206 126° Southeast  Level FlightAware Approximate
12:16AM 25.2392 -103.1009 126° Southeast  Level FlightAware Approximate
12:17AM 25.1605 -102.9814 126° Southeast  Level FlightAware Approximate
12:18AM 25.0817 -102.8621 126° Southeast  Level FlightAware Approximate
12:19AM 25.0028 -102.7429 126° Southeast  Level FlightAware Approximate
12:20AM 24.9238 -102.6239 126° Southeast  Level FlightAware Approximate
12:21AM 24.8447 -102.5050 126° Southeast  Level FlightAware Approximate
12:22AM 24.7655 -102.3863 126° Southeast  Level FlightAware Approximate
12:23AM 24.6863 -102.2677 126° Southeast  Level FlightAware Approximate
12:24AM 24.6069 -102.1493 126° Southeast  Level FlightAware Approximate
12:25AM 24.5274 -102.0311 126° Southeast  Level FlightAware Approximate
12:26AM 24.4479 -101.9129 126° Southeast  Level FlightAware Approximate
12:27AM 24.3708 -101.7930 124° Southeast  Level FlightAware Approximate
12:28AM 24.2952 -101.6719 124° Southeast  Level FlightAware Approximate
12:29AM 24.2195 -101.5510 124° Southeast  Level FlightAware Approximate
12:30AM 24.1395 -101.4339 132° Southeast  Level FlightAware Approximate
12:31AM 24.0494 -101.3256 132° Southeast  Level FlightAware Approximate
12:32AM 23.9593 -101.2174 132° Southeast  Level FlightAware Approximate
12:33AM 23.8691 -101.1094 132° Southeast  Level FlightAware Approximate
12:34AM 23.7789 -101.0015 132° Southeast  Level FlightAware Approximate
12:35AM 23.6886 -100.8938 132° Southeast  Level FlightAware Approximate
12:36AM 23.5981 -100.7862 133° Southeast  Level FlightAware Approximate
12:37AM 23.5077 -100.6788 133° Southeast  Level FlightAware Approximate
12:38AM 23.4177 -100.5712 131° Southeast  Level FlightAware Approximate
12:39AM 23.3305 -100.4607 131° Southeast  Level FlightAware Approximate
12:40AM 23.2433 -100.3503 131° Southeast  Level FlightAware Approximate
12:41AM 23.1546 -100.2414 132° Southeast  Level FlightAware Approximate
12:42AM 23.0652 -100.1333 132° Southeast  Level FlightAware Approximate
12:43AM 22.9757 -100.0253 132° Southeast  Level FlightAware Approximate
12:44AM 22.8862 -99.9175 132° Southeast  Level FlightAware Approximate
12:45AM 22.7966 -99.8098 132° Southeast  Level FlightAware Approximate
12:46AM 22.7069 -99.7022 132° Southeast  Level FlightAware Approximate
12:47AM 22.6171 -99.5948 132° Southeast  Level FlightAware Approximate
12:48AM 22.5273 -99.4875 132° Southeast  Level FlightAware Approximate
12:49AM 22.4374 -99.3804 132° Southeast  Level FlightAware Approximate
12:50AM 22.3474 -99.2734 132° Southeast  Level FlightAware Approximate
12:51AM 22.2574 -99.1665 132° Southeast  Level FlightAware Approximate
12:52AM 22.1672 -99.0598 132° Southeast  Level FlightAware Approximate
12:53AM 22.0772 -98.9531 132° Southeast  Level FlightAware Approximate
12:54AM 21.9872 -98.8464 132° Southeast  Level FlightAware Approximate
12:55AM 21.8972 -98.7398 132° Southeast  Level FlightAware Approximate
12:56AM 21.8071 -98.6333 132° Southeast  Level FlightAware Approximate
12:57AM 21.7169 -98.5270 132° Southeast  Level FlightAware Approximate
12:58AM 21.6266 -98.4208 132° Southeast  Level FlightAware Approximate
12:59AM 21.5363 -98.3147 132° Southeast  Level FlightAware Approximate
01:00AM 21.4459 -98.2088 133° Southeast  Level FlightAware Approximate
01:01AM 21.3555 -98.1030 133° Southeast  Level FlightAware Approximate
01:02AM 21.2650 -97.9973 133° Southeast  Level FlightAware Approximate
01:03AM 21.1744 -97.8918 133° Southeast  Level FlightAware Approximate
01:04AM 21.0837 -97.7864 133° Southeast  Level FlightAware Approximate
01:05AM 20.9930 -97.6811 133° Southeast  Level FlightAware Approximate
01:06AM 20.9023 -97.5759 133° Southeast  Level FlightAware Approximate
01:07AM 20.8114 -97.4709 133° Southeast  Level FlightAware Approximate
01:08AM 20.7205 -97.3660 133° Southeast  Level FlightAware Approximate
01:09AM 20.6296 -97.2613 133° Southeast  Level FlightAware Approximate
01:10AM 20.5385 -97.1566 133° Southeast  Level FlightAware Approximate
01:11AM 20.4474 -97.0521 133° Southeast  Level FlightAware Approximate
01:12AM 20.3563 -96.9477 133° Southeast  Level FlightAware Approximate
01:13AM 20.2655 -96.8430 132° Southeast  Level FlightAware Approximate
01:14AM 20.1774 -96.7359 128° Southeast  Level FlightAware Approximate
01:15AM 20.0949 -96.6238 128° Southeast  Level FlightAware Approximate
01:16AM 20.0123 -96.5118 128° Southeast  Level FlightAware Approximate
01:17AM 19.9297 -96.3999 128° Southeast  Level FlightAware Approximate
01:18AM 19.8470 -96.2882 128° Southeast  Level FlightAware Approximate
01:19AM 19.7642 -96.1765 128° Southeast  Level FlightAware Approximate
01:20AM 19.6814 -96.0650 128° Southeast  Level FlightAware Approximate
01:21AM 19.5985 -95.9536 128° Southeast  Level FlightAware Approximate
01:22AM 19.5155 -95.8423 128° Southeast  Level FlightAware Approximate
01:23AM 19.4325 -95.7311 128° Southeast  Level FlightAware Approximate
01:24AM 19.3494 -95.6201 128° Southeast  Level FlightAware Approximate
01:25AM 19.2662 -95.5091 128° Southeast  Level FlightAware Approximate
01:26AM 19.1829 -95.3983 128° Southeast  Level FlightAware Approximate
01:27AM 19.0996 -95.2876 129° Southeast  Level FlightAware Approximate
01:28AM 19.0162 -95.1769 129° Southeast  Level FlightAware Approximate
01:29AM 18.9329 -95.0663 128° Southeast  Level FlightAware Approximate
01:30AM 18.8496 -94.9558 129° Southeast  Level FlightAware Approximate
01:31AM 18.7662 -94.8453 129° Southeast  Level FlightAware Approximate
01:32AM 18.6828 -94.7350 129° Southeast  Level FlightAware Approximate
01:33AM 18.5993 -94.6247 129° Southeast  Level FlightAware Approximate
01:34AM 18.5157 -94.5146 129° Southeast  Level FlightAware Approximate
01:35AM 18.4321 -94.4046 129° Southeast  Level FlightAware Approximate
01:36AM 18.3484 -94.2947 129° Southeast  Level FlightAware Approximate
01:37AM 18.2646 -94.1849 129° Southeast  Level FlightAware Approximate
01:38AM 18.1808 -94.0752 129° Southeast  Level FlightAware Approximate
01:39AM 18.0969 -93.9656 129° Southeast  Level FlightAware Approximate
01:40AM 18.0129 -93.8561 129° Southeast  Level FlightAware Approximate
01:41AM 17.9289 -93.7467 129° Southeast  Level FlightAware Approximate
01:42AM 17.8448 -93.6375 129° Southeast  Level FlightAware Approximate
01:43AM 17.7607 -93.5283 129° Southeast  Level FlightAware Approximate
01:44AM 17.6765 -93.4192 129° Southeast  Level FlightAware Approximate
01:45AM 17.5923 -93.3102 129° Southeast  Level FlightAware Approximate
01:46AM 17.5080 -93.2014 129° Southeast  Level FlightAware Approximate
01:47AM 17.4236 -93.0926 129° Southeast  Level FlightAware Approximate
01:48AM 17.3392 -92.9839 129° Southeast  Level FlightAware Approximate
01:49AM 17.2547 -92.8754 129° Southeast  Level FlightAware Approximate
01:50AM 17.1701 -92.7669 129° Southeast  Level FlightAware Approximate
01:51AM 17.0855 -92.6585 129° Southeast  Level FlightAware Approximate
01:52AM 17.0009 -92.5502 129° Southeast  Level FlightAware Approximate
01:53AM 16.9161 -92.4421 129° Southeast  Level FlightAware Approximate
01:54AM 16.8314 -92.3340 129° Southeast  Level FlightAware Approximate
01:55AM 16.7465 -92.2260 129° Southeast  Level FlightAware Approximate
01:56AM 16.6616 -92.1181 129° Southeast  Level FlightAware Approximate
01:57AM 16.5767 -92.0104 129° Southeast  Level FlightAware Approximate
01:58AM 16.4917 -91.9027 129° Southeast  Level FlightAware Approximate
01:59AM 16.4066 -91.7951 129° Southeast  Level FlightAware Approximate
02:00AM 16.3215 -91.6876 130° Southeast  Level FlightAware Approximate
02:01AM 16.2363 -91.5802 130° Southeast  Level FlightAware Approximate
02:02AM 16.1511 -91.4728 130° Southeast  Level FlightAware Approximate
02:03AM 16.0658 -91.3656 130° Southeast  Level FlightAware Approximate
02:04AM 15.9802 -91.2587 130° Southeast  Level FlightAware Approximate
02:05AM 15.8946 -91.1519 130° Southeast  Level FlightAware Approximate
02:06AM 15.8089 -91.0452 130° Southeast  Level FlightAware Approximate
02:07AM 15.7231 -90.9386 130° Southeast  Level FlightAware Approximate
02:08AM 15.6373 -90.8321 130° Southeast  Level FlightAware Approximate
02:09AM 15.5514 -90.7257 130° Southeast  Level FlightAware Approximate
02:10AM 15.4655 -90.6193 130° Southeast  Level FlightAware Approximate
02:11AM 15.3795 -90.5131 130° Southeast  Level FlightAware Approximate
02:12AM 15.2935 -90.4069 130° Southeast  Level FlightAware Approximate
02:13AM 15.2074 -90.3008 130° Southeast  Level FlightAware Approximate
02:14AM 15.1213 -90.1948 130° Southeast  Level FlightAware Approximate
02:15AM 15.0351 -90.0889 130° Southeast  Level FlightAware Approximate
02:16AM 14.9489 -89.9831 130° Southeast  Level FlightAware Approximate
02:17AM 14.8626 -89.8773 130° Southeast  Level FlightAware Approximate
02:18AM 14.7763 -89.7717 130° Southeast  Level FlightAware Approximate
02:19AM 14.6900 -89.6661 130° Southeast  Level FlightAware Approximate
02:20AM 14.6035 -89.5606 130° Southeast  Level FlightAware Approximate
02:21AM 14.5171 -89.4552 130° Southeast  Level FlightAware Approximate
02:22AM 14.4306 -89.3499 130° Southeast  Level FlightAware Approximate
02:23AM 14.3440 -89.2447 130° Southeast  Level FlightAware Approximate
02:24AM 14.2574 -89.1395 130° Southeast  Level FlightAware Approximate
02:25AM 14.1708 -89.0344 130° Southeast  Level FlightAware Approximate
02:26AM 14.0841 -88.9294 130° Southeast  Level FlightAware Approximate
02:27AM 13.9973 -88.8245 130° Southeast  Level FlightAware Approximate
02:28AM 13.9106 -88.7197 130° Southeast  Level FlightAware Approximate
02:29AM 13.8237 -88.6149 131° Southeast  Level FlightAware Approximate
02:30AM 13.7368 -88.5103 131° Southeast  Level FlightAware Approximate
02:31AM 13.6498 -88.4057 131° Southeast  Level FlightAware Approximate
02:32AM 13.5628 -88.3012 131° Southeast  Level FlightAware Approximate
02:33AM 13.4758 -88.1968 131° Southeast  Level FlightAware Approximate
02:34AM 13.3887 -88.0924 131° Southeast  Level FlightAware Approximate
02:35AM 13.3016 -87.9882 131° Southeast  Level FlightAware Approximate
02:36AM 13.2144 -87.8840 131° Southeast  Level FlightAware Approximate
02:37AM 13.1272 -87.7799 131° Southeast  Level FlightAware Approximate
02:38AM 13.0400 -87.6758 131° Southeast  Level FlightAware Approximate
02:39AM 12.9527 -87.5719 131° Southeast  Level FlightAware Approximate
02:40AM 12.8653 -87.4680 131° Southeast  Level FlightAware Approximate
02:41AM 12.7779 -87.3642 131° Southeast  Level FlightAware Approximate
02:42AM 12.6905 -87.2604 131° Southeast  Level FlightAware Approximate
02:43AM 12.6031 -87.1567 131° Southeast  Level FlightAware Approximate
02:44AM 12.5155 -87.0531 131° Southeast  Level FlightAware Approximate
02:45AM 12.4280 -86.9496 131° Southeast  Level FlightAware Approximate
02:46AM 12.3404 -86.8461 131° Southeast  Level FlightAware Approximate
02:47AM 12.2528 -86.7427 131° Southeast  Level FlightAware Approximate
02:48AM 12.1651 -86.6394 131° Southeast  Level FlightAware Approximate
02:49AM 12.0774 -86.5361 131° Southeast  Level FlightAware Approximate
02:50AM 11.9897 -86.4329 131° Southeast  Level FlightAware Approximate
02:51AM 11.9019 -86.3298 131° Southeast  Level FlightAware Approximate
02:52AM 11.8139 -86.2269 131° Southeast  Level FlightAware Approximate
02:53AM 11.7259 -86.1241 131° Southeast  Level FlightAware Approximate
02:54AM 11.6379 -86.0213 131° Southeast  Level FlightAware Approximate
02:55AM 11.5498 -85.9185 131° Southeast  Level FlightAware Approximate
02:56AM 11.4617 -85.8159 131° Southeast  Level FlightAware Approximate
02:57AM 11.3736 -85.7133 131° Southeast  Level FlightAware Approximate
02:58AM 11.2854 -85.6108 131° Southeast  Level FlightAware Approximate
02:59AM 11.1972 -85.5083 131° Southeast  Level FlightAware Approximate
03:00AM 11.1089 -85.4059 131° Southeast  Level FlightAware Approximate
03:01AM 11.0206 -85.3035 131° Southeast  Level FlightAware Approximate
03:02AM 10.9323 -85.2012 131° Southeast  Level FlightAware Approximate
03:03AM 10.8440 -85.0990 131° Southeast  Level FlightAware Approximate
03:04AM 10.7556 -84.9969 131° Southeast  Level FlightAware Approximate
03:05AM 10.6671 -84.8948 131° Southeast  Level FlightAware Approximate
03:06AM 10.5787 -84.7927 131° Southeast  Level FlightAware Approximate
03:07AM 10.4902 -84.6907 131° Southeast  Level FlightAware Approximate
03:08AM 10.4017 -84.5888 131° Southeast  Level FlightAware Approximate
03:09AM 10.3131 -84.4869 131° Southeast  Level FlightAware Approximate
03:10AM 10.2246 -84.3851 131° Southeast  Level FlightAware Approximate
03:11AM 10.1359 -84.2834 131° Southeast  Level FlightAware Approximate
03:12AM 10.0473 -84.1817 132° Southeast  Level FlightAware Approximate
03:13AM 9.9586 -84.0800 132° Southeast  Level FlightAware Approximate
03:14AM 9.8699 -83.9784 132° Southeast  Level FlightAware Approximate
03:15AM 9.7811 -83.8769 132° Southeast  Level FlightAware Approximate
03:16AM 9.6924 -83.7754 132° Southeast  Level FlightAware Approximate
03:17AM 9.6036 -83.6740 132° Southeast  Level FlightAware Approximate
03:18AM 9.5147 -83.5726 132° Southeast  Level FlightAware Approximate
03:19AM 9.4259 -83.4713 132° Southeast  Level FlightAware Approximate
03:20AM 9.3370 -83.3700 132° Southeast  Level FlightAware Approximate
03:21AM 9.2481 -83.2688 132° Southeast  Level FlightAware Approximate
03:22AM 9.1592 -83.1677 132° Southeast  Level FlightAware Approximate
03:23AM 9.0702 -83.0666 132° Southeast  Level FlightAware Approximate
03:24AM 8.9812 -82.9655 132° Southeast  Level FlightAware Approximate
03:25AM 8.8922 -82.8645 132° Southeast  Level FlightAware Approximate
03:26AM 8.8033 -82.7634 132° Southeast  Level FlightAware Approximate
03:27AM 8.7145 -82.6622 132° Southeast  Level FlightAware Approximate
03:28AM 8.6257 -82.5611 132° Southeast  Level FlightAware Approximate
03:29AM 8.5368 -82.4600 132° Southeast  Level FlightAware Approximate
03:30AM 8.4479 -82.3590 132° Southeast  Level FlightAware Approximate
03:31AM 8.3590 -82.2580 132° Southeast  Level FlightAware Approximate
03:32AM 8.2701 -82.1570 132° Southeast  Level FlightAware Approximate
03:33AM 8.1812 -82.0561 132° Southeast  Level FlightAware Approximate
03:34AM 8.0922 -81.9553 132° Southeast  Level FlightAware Approximate
03:35AM 8.0032 -81.8545 132° Southeast  Level FlightAware Approximate
03:36AM 7.9142 -81.7537 132° Southeast  Level FlightAware Approximate
03:37AM 7.8251 -81.6530 132° Southeast  Level FlightAware Approximate
03:38AM 7.7360 -81.5523 132° Southeast  Level FlightAware Approximate
03:39AM 7.6469 -81.4517 132° Southeast  Level FlightAware Approximate
03:40AM 7.5578 -81.3511 132° Southeast  Level FlightAware Approximate
03:41AM 7.4687 -81.2506 132° Southeast  Level FlightAware Approximate
03:42AM 7.3795 -81.1501 132° Southeast  Level FlightAware Approximate
03:43AM 7.2903 -81.0496 132° Southeast  Level FlightAware Approximate
03:44AM 7.2011 -80.9492 132° Southeast  Level FlightAware Approximate
03:45AM 7.1119 -80.8488 132° Southeast  Level FlightAware Approximate
03:46AM 7.0226 -80.7484 132° Southeast  Level FlightAware Approximate
03:47AM 6.9334 -80.6481 132° Southeast  Level FlightAware Approximate
03:48AM 6.8440 -80.5478 132° Southeast  Level FlightAware Approximate
03:49AM 6.7547 -80.4476 132° Southeast  Level FlightAware Approximate
03:50AM 6.6654 -80.3474 132° Southeast  Level FlightAware Approximate
03:51AM 6.5760 -80.2473 132° Southeast  Level FlightAware Approximate
03:52AM 6.4866 -80.1471 132° Southeast  Level FlightAware Approximate
03:53AM 6.3973 -80.0470 132° Southeast  Level FlightAware Approximate
03:54AM 6.3078 -79.9470 132° Southeast  Level FlightAware Approximate
03:55AM 6.2184 -79.8470 132° Southeast  Level FlightAware Approximate
03:56AM 6.1290 -79.7470 132° Southeast  Level FlightAware Approximate
03:57AM 6.0395 -79.6470 132° Southeast  Level FlightAware Approximate
03:58AM 5.9500 -79.5471 132° Southeast  Level FlightAware Approximate
03:59AM 5.8605 -79.4472 132° Southeast  Level FlightAware Approximate
04:00AM 5.7709 -79.3474 132° Southeast  Level FlightAware Approximate
04:01AM 5.6814 -79.2476 132° Southeast  Level FlightAware Approximate
04:02AM 5.5918 -79.1478 132° Southeast  Level FlightAware Approximate
04:03AM 5.5023 -79.0480 132° Southeast  Level FlightAware Approximate
04:04AM 5.4127 -78.9483 132° Southeast  Level FlightAware Approximate
04:05AM 5.3231 -78.8486 132° Southeast  Level FlightAware Approximate
04:06AM 5.2334 -78.7489 132° Southeast  Level FlightAware Approximate
04:07AM 5.1438 -78.6493 132° Southeast  Level FlightAware Approximate
04:08AM 5.0541 -78.5496 132° Southeast  Level FlightAware Approximate
04:09AM 4.9645 -78.4501 132° Southeast  Level FlightAware Approximate
04:10AM 4.8748 -78.3505 132° Southeast  Level FlightAware Approximate
04:11AM 4.7851 -78.2510 132° Southeast  Level FlightAware Approximate
04:12AM 4.6954 -78.1515 132° Southeast  Level FlightAware Approximate
04:13AM 4.6056 -78.0520 132° Southeast  Level FlightAware Approximate
04:14AM 4.5159 -77.9525 132° Southeast  Level FlightAware Approximate
04:15AM 4.4261 -77.8531 132° Southeast  Level FlightAware Approximate
04:16AM 4.3364 -77.7537 132° Southeast  Level FlightAware Approximate
04:17AM 4.2466 -77.6543 132° Southeast  Level FlightAware Approximate
04:18AM 4.1568 -77.5549 132° Southeast  Level FlightAware Approximate
04:19AM 4.0670 -77.4556 132° Southeast  Level FlightAware Approximate
04:20AM 3.9771 -77.3563 132° Southeast  Level FlightAware Approximate
04:21AM 3.8873 -77.2570 132° Southeast  Level FlightAware Approximate
04:22AM 3.7975 -77.1577 132° Southeast  Level FlightAware Approximate
04:23AM 3.7076 -77.0584 132° Southeast  Level FlightAware Approximate
04:24AM 3.6177 -76.9592 132° Southeast  Level FlightAware Approximate
04:25AM 3.5279 -76.8600 132° Southeast  Level FlightAware Approximate
04:26AM 3.4380 -76.7608 132° Southeast  Level FlightAware Approximate
04:27AM 3.3481 -76.6616 132° Southeast  Level FlightAware Approximate
04:28AM 3.2582 -76.5625 132° Southeast  Level FlightAware Approximate
04:29AM 3.1682 -76.4633 132° Southeast  Level FlightAware Approximate
04:30AM 3.0783 -76.3642 132° Southeast  Level FlightAware Approximate
04:31AM 2.9884 -76.2651 132° Southeast  Level FlightAware Approximate
04:32AM 2.8984 -76.1660 132° Southeast  Level FlightAware Approximate
04:33AM 2.8085 -76.0669 132° Southeast  Level FlightAware Approximate
04:34AM 2.7185 -75.9679 132° Southeast  Level FlightAware Approximate
04:35AM 2.6285 -75.8688 132° Southeast  Level FlightAware Approximate
04:36AM 2.5385 -75.7698 132° Southeast  Level FlightAware Approximate
04:37AM 2.4486 -75.6708 132° Southeast  Level FlightAware Approximate
04:38AM 2.3586 -75.5718 132° Southeast  Level FlightAware Approximate
04:39AM 2.2686 -75.4728 132° Southeast  Level FlightAware Approximate
04:40AM 2.1786 -75.3738 132° Southeast  Level FlightAware Approximate
04:41AM 2.0886 -75.2748 132° Southeast  Level FlightAware Approximate
04:42AM 1.9985 -75.1759 132° Southeast  Level FlightAware Approximate
04:43AM 1.9085 -75.0770 132° Southeast  Level FlightAware Approximate
04:44AM 1.8185 -74.9780 132° Southeast  Level FlightAware Approximate
04:45AM 1.7284 -74.8791 132° Southeast  Level FlightAware Approximate
04:46AM 1.6384 -74.7802 132° Southeast  Level FlightAware Approximate
04:47AM 1.5483 -74.6813 132° Southeast  Level FlightAware Approximate
04:48AM 1.4583 -74.5824 132° Southeast  Level FlightAware Approximate
04:49AM 1.3682 -74.4835 132° Southeast  Level FlightAware Approximate
04:50AM 1.2782 -74.3846 132° Southeast  Level FlightAware Approximate
04:51AM 1.1881 -74.2858 132° Southeast  Level FlightAware Approximate
04:52AM 1.0980 -74.1869 132° Southeast  Level FlightAware Approximate
04:53AM 1.0080 -74.0880 132° Southeast  Level FlightAware Approximate
04:54AM 0.9179 -73.9892 132° Southeast  Level FlightAware Approximate
04:55AM 0.8278 -73.8903 132° Southeast  Level FlightAware Approximate
04:56AM 0.7377 -73.7915 132° Southeast  Level FlightAware Approximate
04:57AM 0.6477 -73.6926 132° Southeast  Level FlightAware Approximate
04:58AM 0.5576 -73.5938 132° Southeast  Level FlightAware Approximate
04:59AM 0.4675 -73.4949 132° Southeast  Level FlightAware Approximate
05:00AM 0.3774 -73.3961 132° Southeast  Level FlightAware Approximate
05:01AM 0.2873 -73.2973 132° Southeast  Level FlightAware Approximate
05:02AM 0.1972 -73.1984 132° Southeast  Level FlightAware Approximate
05:03AM 0.1071 -73.0996 132° Southeast  Level FlightAware Approximate
05:04AM 0.0170 -73.0008 132° Southeast  Level FlightAware Approximate
05:05AM -0.0730 -72.9020 132° Southeast  Level FlightAware Approximate
05:06AM -0.1631 -72.8031 132° Southeast  Level FlightAware Approximate
05:07AM -0.2532 -72.7043 132° Southeast  Level FlightAware Approximate
05:08AM -0.3433 -72.6055 132° Southeast  Level FlightAware Approximate
05:09AM -0.4334 -72.5066 132° Southeast  Level FlightAware Approximate
05:10AM -0.5235 -72.4078 132° Southeast  Level FlightAware Approximate
05:11AM -0.6136 -72.3090 132° Southeast  Level FlightAware Approximate
05:12AM -0.7037 -72.2101 132° Southeast  Level FlightAware Approximate
05:13AM -0.7937 -72.1113 132° Southeast  Level FlightAware Approximate
05:14AM -0.8838 -72.0124 132° Southeast  Level FlightAware Approximate
05:15AM -0.9739 -71.9136 132° Southeast  Level FlightAware Approximate
05:16AM -1.0640 -71.8147 132° Southeast  Level FlightAware Approximate
05:17AM -1.1540 -71.7158 132° Southeast  Level FlightAware Approximate
05:18AM -1.2441 -71.6170 132° Southeast  Level FlightAware Approximate
05:19AM -1.3342 -71.5181 132° Southeast  Level FlightAware Approximate
05:20AM -1.4242 -71.4192 132° Southeast  Level FlightAware Approximate
05:21AM -1.5143 -71.3203 132° Southeast  Level FlightAware Approximate
05:22AM -1.6043 -71.2214 132° Southeast  Level FlightAware Approximate
05:23AM -1.6944 -71.1225 132° Southeast  Level FlightAware Approximate
05:24AM -1.7844 -71.0236 132° Southeast  Level FlightAware Approximate
05:25AM -1.8744 -70.9246 132° Southeast  Level FlightAware Approximate
05:26AM -1.9645 -70.8257 132° Southeast  Level FlightAware Approximate
05:27AM -2.0545 -70.7268 132° Southeast  Level FlightAware Approximate
05:28AM -2.1445 -70.6278 132° Southeast  Level FlightAware Approximate
05:29AM -2.2345 -70.5288 132° Southeast  Level FlightAware Approximate
05:30AM -2.3245 -70.4298 132° Southeast  Level FlightAware Approximate
05:31AM -2.4145 -70.3308 132° Southeast  Level FlightAware Approximate
05:32AM -2.5045 -70.2318 132° Southeast  Level FlightAware Approximate
05:33AM -2.5945 -70.1328 132° Southeast  Level FlightAware Approximate
05:34AM -2.6845 -70.0338 132° Southeast  Level FlightAware Approximate
05:35AM -2.7772 -69.9373 134° Southeast  Level FlightAware Approximate
05:36AM -2.8706 -69.8414 134° Southeast  Level FlightAware Approximate
05:37AM -2.9639 -69.7455 134° Southeast  Level FlightAware Approximate
05:38AM -3.0572 -69.6496 134° Southeast  Level FlightAware Approximate
05:39AM -3.1505 -69.5537 134° Southeast  Level FlightAware Approximate
05:40AM -3.2438 -69.4577 134° Southeast  Level FlightAware Approximate
05:41AM -3.3371 -69.3617 134° Southeast  Level FlightAware Approximate
05:42AM -3.4304 -69.2657 134° Southeast  Level FlightAware Approximate
05:43AM -3.5236 -69.1697 134° Southeast  Level FlightAware Approximate
05:44AM -3.6169 -69.0737 134° Southeast  Level FlightAware Approximate
05:45AM -3.7102 -68.9777 134° Southeast  Level FlightAware Approximate
05:46AM -3.8034 -68.8816 134° Southeast  Level FlightAware Approximate
05:47AM -3.8966 -68.7855 134° Southeast  Level FlightAware Approximate
05:48AM -3.9899 -68.6894 134° Southeast  Level FlightAware Approximate
05:49AM -4.0831 -68.5932 134° Southeast  Level FlightAware Approximate
05:50AM -4.1762 -68.4971 134° Southeast  Level FlightAware Approximate
05:51AM -4.2694 -68.4009 134° Southeast  Level FlightAware Approximate
05:52AM -4.3626 -68.3047 134° Southeast  Level FlightAware Approximate
05:53AM -4.4558 -68.2085 134° Southeast  Level FlightAware Approximate
05:54AM -4.5489 -68.1122 134° Southeast  Level FlightAware Approximate
05:55AM -4.6420 -68.0160 134° Southeast  Level FlightAware Approximate
05:56AM -4.7352 -67.9196 134° Southeast  Level FlightAware Approximate
05:57AM -4.8283 -67.8233 134° Southeast  Level FlightAware Approximate
05:58AM -4.9214 -67.7270 134° Southeast  Level FlightAware Approximate
05:59AM -5.0144 -67.6306 134° Southeast  Level FlightAware Approximate
06:00AM -5.1075 -67.5342 134° Southeast  Level FlightAware Approximate
06:01AM -5.2006 -67.4377 134° Southeast  Level FlightAware Approximate
06:02AM -5.2936 -67.3413 134° Southeast  Level FlightAware Approximate
06:03AM -5.3866 -67.2448 134° Southeast  Level FlightAware Approximate
06:04AM -5.4796 -67.1483 134° Southeast  Level FlightAware Approximate
06:05AM -5.5726 -67.0517 134° Southeast  Level FlightAware Approximate
06:06AM -5.6656 -66.9551 134° Southeast  Level FlightAware Approximate
06:07AM -5.7585 -66.8585 134° Southeast  Level FlightAware Approximate
06:08AM -5.8515 -66.7619 134° Southeast  Level FlightAware Approximate
06:09AM -5.9444 -66.6652 134° Southeast  Level FlightAware Approximate
06:10AM -6.0373 -66.5685 134° Southeast  Level FlightAware Approximate
06:11AM -6.1302 -66.4717 134° Southeast  Level FlightAware Approximate
06:12AM -6.2231 -66.3749 134° Southeast  Level FlightAware Approximate
06:13AM -6.3159 -66.2781 134° Southeast  Level FlightAware Approximate
06:14AM -6.4088 -66.1813 134° Southeast  Level FlightAware Approximate
06:15AM -6.5016 -66.0844 134° Southeast  Level FlightAware Approximate
06:16AM -6.5944 -65.9875 134° Southeast  Level FlightAware Approximate
06:17AM -6.6872 -65.8905 134° Southeast  Level FlightAware Approximate
06:18AM -6.7799 -65.7935 134° Southeast  Level FlightAware Approximate
06:19AM -6.8727 -65.6965 134° Southeast  Level FlightAware Approximate
06:20AM -6.9654 -65.5994 134° Southeast  Level FlightAware Approximate
06:21AM -7.0581 -65.5023 134° Southeast  Level FlightAware Approximate
06:22AM -7.1508 -65.4052 134° Southeast  Level FlightAware Approximate
06:23AM -7.2435 -65.3080 134° Southeast  Level FlightAware Approximate
06:24AM -7.3361 -65.2108 134° Southeast  Level FlightAware Approximate
06:25AM -7.4288 -65.1135 134° Southeast  Level FlightAware Approximate
06:26AM -7.5213 -65.0162 134° Southeast  Level FlightAware Approximate
06:27AM -7.6139 -64.9189 134° Southeast  Level FlightAware Approximate
06:28AM -7.7065 -64.8215 134° Southeast  Level FlightAware Approximate
06:29AM -7.7990 -64.7240 134° Southeast  Level FlightAware Approximate
06:30AM -7.8916 -64.6266 134° Southeast  Level FlightAware Approximate
06:31AM -7.9840 -64.5291 134° Southeast  Level FlightAware Approximate
06:32AM -8.0765 -64.4315 134° Southeast  Level FlightAware Approximate
06:33AM -8.1690 -64.3339 134° Southeast  Level FlightAware Approximate
06:34AM -8.2614 -64.2362 134° Southeast  Level FlightAware Approximate
06:35AM -8.3538 -64.1385 134° Southeast  Level FlightAware Approximate
06:36AM -8.4462 -64.0408 134° Southeast  Level FlightAware Approximate
06:37AM -8.5385 -63.9430 134° Southeast  Level FlightAware Approximate
06:38AM -8.6308 -63.8452 134° Southeast  Level FlightAware Approximate
06:39AM -8.7231 -63.7473 134° Southeast  Level FlightAware Approximate
06:40AM -8.8154 -63.6493 134° Southeast  Level FlightAware Approximate
06:41AM -8.9077 -63.5514 134° Southeast  Level FlightAware Approximate
06:42AM -8.9999 -63.4533 134° Southeast  Level FlightAware Approximate
06:43AM -9.0921 -63.3553 134° Southeast  Level FlightAware Approximate
06:44AM -9.1843 -63.2571 134° Southeast  Level FlightAware Approximate
06:45AM -9.2764 -63.1589 134° Southeast  Level FlightAware Approximate
06:46AM -9.3685 -63.0607 134° Southeast  Level FlightAware Approximate
06:47AM -9.4606 -62.9624 134° Southeast  Level FlightAware Approximate
06:48AM -9.5527 -62.8641 134° Southeast  Level FlightAware Approximate
06:49AM -9.6447 -62.7657 133° Southeast  Level FlightAware Approximate
06:50AM -9.7367 -62.6672 133° Southeast  Level FlightAware Approximate
06:51AM -9.8287 -62.5687 133° Southeast  Level FlightAware Approximate
06:52AM -9.9207 -62.4702 133° Southeast  Level FlightAware Approximate
06:53AM -10.0126 -62.3716 133° Southeast  Level FlightAware Approximate
06:54AM -10.1045 -62.2729 133° Southeast  Level FlightAware Approximate
06:55AM -10.1964 -62.1742 133° Southeast  Level FlightAware Approximate
06:56AM -10.2882 -62.0754 133° Southeast  Level FlightAware Approximate
06:57AM -10.3800 -61.9766 133° Southeast  Level FlightAware Approximate
06:58AM -10.4718 -61.8777 133° Southeast  Level FlightAware Approximate
06:59AM -10.5636 -61.7787 133° Southeast  Level FlightAware Approximate
07:00AM -10.6553 -61.6797 133° Southeast  Level FlightAware Approximate
07:01AM -10.7470 -61.5806 133° Southeast  Level FlightAware Approximate
07:02AM -10.8386 -61.4815 133° Southeast  Level FlightAware Approximate
07:03AM -10.9302 -61.3823 133° Southeast  Level FlightAware Approximate
07:04AM -11.0218 -61.2830 133° Southeast  Level FlightAware Approximate
07:05AM -11.1134 -61.1837 133° Southeast  Level FlightAware Approximate
07:06AM -11.2049 -61.0843 133° Southeast  Level FlightAware Approximate
07:07AM -11.2964 -60.9849 133° Southeast  Level FlightAware Approximate
07:08AM -11.3878 -60.8854 133° Southeast  Level FlightAware Approximate
07:09AM -11.4793 -60.7858 133° Southeast  Level FlightAware Approximate
07:10AM -11.5707 -60.6861 133° Southeast  Level FlightAware Approximate
07:11AM -11.6620 -60.5864 133° Southeast  Level FlightAware Approximate
07:12AM -11.7533 -60.4867 133° Southeast  Level FlightAware Approximate
07:13AM -11.8446 -60.3868 133° Southeast  Level FlightAware Approximate
07:14AM -11.9359 -60.2869 133° Southeast  Level FlightAware Approximate
07:15AM -12.0271 -60.1870 133° Southeast  Level FlightAware Approximate
07:16AM -12.1183 -60.0869 133° Southeast  Level FlightAware Approximate
07:17AM -12.2094 -59.9869 133° Southeast  Level FlightAware Approximate
07:18AM -12.3005 -59.8867 133° Southeast  Level FlightAware Approximate
07:19AM -12.3916 -59.7864 133° Southeast  Level FlightAware Approximate
07:20AM -12.4826 -59.6861 133° Southeast  Level FlightAware Approximate
07:21AM -12.5737 -59.5858 133° Southeast  Level FlightAware Approximate
07:22AM -12.6646 -59.4853 133° Southeast  Level FlightAware Approximate
07:23AM -12.7555 -59.3848 133° Southeast  Level FlightAware Approximate
07:24AM -12.8464 -59.2842 133° Southeast  Level FlightAware Approximate
07:25AM -12.9373 -59.1835 133° Southeast  Level FlightAware Approximate
07:26AM -13.0281 -59.0828 133° Southeast  Level FlightAware Approximate
07:27AM -13.1188 -58.9819 133° Southeast  Level FlightAware Approximate
07:28AM -13.2096 -58.8811 133° Southeast  Level FlightAware Approximate
07:29AM -13.3003 -58.7801 133° Southeast  Level FlightAware Approximate
07:30AM -13.3909 -58.6791 133° Southeast  Level FlightAware Approximate
07:31AM -13.4815 -58.5779 133° Southeast  Level FlightAware Approximate
07:32AM -13.5721 -58.4767 133° Southeast  Level FlightAware Approximate
07:33AM -13.6626 -58.3755 133° Southeast  Level FlightAware Approximate
07:34AM -13.7531 -58.2741 133° Southeast  Level FlightAware Approximate
07:35AM -13.8436 -58.1727 133° Southeast  Level FlightAware Approximate
07:36AM -13.9340 -58.0712 133° Southeast  Level FlightAware Approximate
07:37AM -14.0243 -57.9696 133° Southeast  Level FlightAware Approximate
07:38AM -14.1147 -57.8679 132° Southeast  Level FlightAware Approximate
07:39AM -14.2049 -57.7662 132° Southeast  Level FlightAware Approximate
07:40AM -14.2952 -57.6643 132° Southeast  Level FlightAware Approximate
07:41AM -14.3854 -57.5624 132° Southeast  Level FlightAware Approximate
07:42AM -14.4755 -57.4604 132° Southeast  Level FlightAware Approximate
07:43AM -14.5656 -57.3583 132° Southeast  Level FlightAware Approximate
07:44AM -14.6557 -57.2562 132° Southeast  Level FlightAware Approximate
07:45AM -14.7457 -57.1539 132° Southeast  Level FlightAware Approximate
07:46AM -14.8357 -57.0516 132° Southeast  Level FlightAware Approximate
07:47AM -14.9256 -56.9492 132° Southeast  Level FlightAware Approximate
07:48AM -15.0155 -56.8467 132° Southeast  Level FlightAware Approximate
07:49AM -15.1053 -56.7441 132° Southeast  Level FlightAware Approximate
07:50AM -15.1951 -56.6415 132° Southeast  Level FlightAware Approximate
07:51AM -15.2849 -56.5387 132° Southeast  Level FlightAware Approximate
07:52AM -15.3745 -56.4358 132° Southeast  Level FlightAware Approximate
07:53AM -15.4642 -56.3329 132° Southeast  Level FlightAware Approximate
07:54AM -15.5538 -56.2299 132° Southeast  Level FlightAware Approximate
07:55AM -15.6433 -56.1268 132° Southeast  Level FlightAware Approximate
07:56AM -15.7328 -56.0236 132° Southeast  Level FlightAware Approximate
07:57AM -15.8223 -55.9203 132° Southeast  Level FlightAware Approximate
07:58AM -15.9117 -55.8169 132° Southeast  Level FlightAware Approximate
07:59AM -16.0011 -55.7134 132° Southeast  Level FlightAware Approximate
08:00AM -16.0904 -55.6098 132° Southeast  Level FlightAware Approximate
08:01AM -16.1796 -55.5062 132° Southeast  Level FlightAware Approximate
08:02AM -16.2689 -55.4024 132° Southeast  Level FlightAware Approximate
08:03AM -16.3580 -55.2986 132° Southeast  Level FlightAware Approximate
08:04AM -16.4471 -55.1946 132° Southeast  Level FlightAware Approximate
08:05AM -16.5362 -55.0906 132° Southeast  Level FlightAware Approximate
08:06AM -16.6252 -54.9864 132° Southeast  Level FlightAware Approximate
08:07AM -16.7141 -54.8822 132° Southeast  Level FlightAware Approximate
08:08AM -16.8030 -54.7779 132° Southeast  Level FlightAware Approximate
08:09AM -16.8919 -54.6734 132° Southeast  Level FlightAware Approximate
08:10AM -16.9807 -54.5689 132° Southeast  Level FlightAware Approximate
08:11AM -17.0694 -54.4643 132° Southeast  Level FlightAware Approximate
08:12AM -17.1581 -54.3596 132° Southeast  Level FlightAware Approximate
08:13AM -17.2467 -54.2547 132° Southeast  Level FlightAware Approximate
08:14AM -17.3353 -54.1498 131° Southeast  Level FlightAware Approximate
08:15AM -17.4238 -54.0448 131° Southeast  Level FlightAware Approximate
08:16AM -17.5123 -53.9396 131° Southeast  Level FlightAware Approximate
08:17AM -17.6007 -53.8344 131° Southeast  Level FlightAware Approximate
08:18AM -17.6891 -53.7291 131° Southeast  Level FlightAware Approximate
08:19AM -17.7774 -53.6236 131° Southeast  Level FlightAware Approximate
08:20AM -17.8656 -53.5181 131° Southeast  Level FlightAware Approximate
08:21AM -17.9538 -53.4124 131° Southeast  Level FlightAware Approximate
08:22AM -18.0419 -53.3067 131° Southeast  Level FlightAware Approximate
08:23AM -18.1300 -53.2008 131° Southeast  Level FlightAware Approximate
08:24AM -18.2180 -53.0948 131° Southeast  Level FlightAware Approximate
08:25AM -18.3060 -52.9888 131° Southeast  Level FlightAware Approximate
08:26AM -18.3939 -52.8826 131° Southeast  Level FlightAware Approximate
08:27AM -18.4817 -52.7763 131° Southeast  Level FlightAware Approximate
08:28AM -18.5695 -52.6699 131° Southeast  Level FlightAware Approximate
08:29AM -18.6572 -52.5634 131° Southeast  Level FlightAware Approximate
08:30AM -18.7449 -52.4568 131° Southeast  Level FlightAware Approximate
08:31AM -18.8325 -52.3500 131° Southeast  Level FlightAware Approximate
08:32AM -18.9200 -52.2432 131° Southeast  Level FlightAware Approximate
08:33AM -19.0075 -52.1362 131° Southeast  Level FlightAware Approximate
08:34AM -19.0949 -52.0292 131° Southeast  Level FlightAware Approximate
08:35AM -19.1822 -51.9220 131° Southeast  Level FlightAware Approximate
08:36AM -19.2695 -51.8147 131° Southeast  Level FlightAware Approximate
08:37AM -19.3568 -51.7073 131° Southeast  Level FlightAware Approximate
08:38AM -19.4439 -51.5998 131° Southeast  Level FlightAware Approximate
08:39AM -19.5310 -51.4921 131° Southeast  Level FlightAware Approximate
08:40AM -19.6181 -51.3844 131° Southeast  Level FlightAware Approximate
08:41AM -19.7050 -51.2765 131° Southeast  Level FlightAware Approximate
08:42AM -19.7920 -51.1685 131° Southeast  Level FlightAware Approximate
08:43AM -19.8789 -51.0603 131° Southeast  Level FlightAware Approximate
08:44AM -19.9657 -50.9520 130° Southeast  Level FlightAware Approximate
08:45AM -20.0525 -50.8436 130° Southeast  Level FlightAware Approximate
08:46AM -20.1392 -50.7351 130° Southeast  Level FlightAware Approximate
08:47AM -20.2258 -50.6264 130° Southeast  Level FlightAware Approximate
08:48AM -20.3124 -50.5177 130° Southeast  Level FlightAware Approximate
08:49AM -20.3989 -50.4087 130° Southeast  Level FlightAware Approximate
08:50AM -20.4854 -50.2997 130° Southeast  Level FlightAware Approximate
08:51AM -20.5717 -50.1906 130° Southeast  Level FlightAware Approximate
08:52AM -20.6581 -50.0813 130° Southeast  Level FlightAware Approximate
08:53AM -20.7443 -49.9719 130° Southeast  Level FlightAware Approximate
08:54AM -20.8305 -49.8624 130° Southeast  Level FlightAware Approximate
08:55AM -20.9166 -49.7527 130° Southeast  Level FlightAware Approximate
08:56AM -21.0026 -49.6429 130° Southeast  Level FlightAware Approximate
08:57AM -21.0886 -49.5330 130° Southeast  Level FlightAware Approximate
08:58AM -21.1744 -49.4230 130° Southeast  Level FlightAware Approximate
08:59AM -21.2603 -49.3129 130° Southeast  Level FlightAware Approximate
09:00AM -21.3460 -49.2026 130° Southeast  Level FlightAware Approximate
09:01AM -21.4317 -49.0922 130° Southeast  Level FlightAware Approximate
09:02AM -21.5173 -48.9816 130° Southeast  Level FlightAware Approximate
09:03AM -21.6028 -48.8709 130° Southeast  Level FlightAware Approximate
09:04AM -21.6882 -48.7601 130° Southeast  Level FlightAware Approximate
09:05AM -21.7736 -48.6492 130° Southeast  Level FlightAware Approximate
09:06AM -21.8589 -48.5381 130° Southeast  Level FlightAware Approximate
09:07AM -21.9442 -48.4269 130° Southeast  Level FlightAware Approximate
09:08AM -22.0293 -48.3156 130° Southeast  Level FlightAware Approximate
09:09AM -22.1169 -48.2064 132° Southeast  Level FlightAware Approximate
09:10AM -22.2028 -48.0957 126° Southeast  Level FlightAware Approximate
09:11AM -22.2838 -47.9807 128° Southeast  Level FlightAware Approximate
09:12AM -22.3665 -47.8669 128° Southeast  Level FlightAware Approximate
09:13AM -22.4497 -47.7536 128° Southeast  Level FlightAware Approximate
09:14AM -22.5329 -47.6401 128° Southeast  Level FlightAware Approximate
09:15AM -22.6181 -47.5283 130° Southeast  Level FlightAware Approximate
09:16AM -22.7037 -47.4169 130° Southeast  Level FlightAware Approximate
09:17AM -22.7884 -47.3045 129° Southeast  Level FlightAware Approximate
09:18AM -22.8729 -47.1919 129° Southeast  Level FlightAware Approximate
09:19AM -22.9610 -47.0827 134° Southeast  Level FlightAware Approximate
09:20AM -23.0512 -46.9754 128° Southeast  Level FlightAware Approximate
09:21AM -23.1342 -46.8613 128° Southeast  Level FlightAware Approximate
09:22AM -23.2052 -46.7404 132° Southeast  Level FlightAware Approximate
09:23AM -23.2935 -46.6310 129° Southeast  Level FlightAware Approximate